Macon, GA

6:02 AM EDT on May 07, 2015 (GMT -0400)
Middle Georgia Regional | | Change Station
CLOSE
Current Station
Airport
Location: Macon,
Elevation: 361 ft
Nearby Weather Stations

Elev 361 ft 32.68 °N, 83.65 °W | Updated 9 minutes ago

Clear
Clear
52 °F
Feels Like 52 °F
N
0
Wind Variable Wind from North

Today
High -- | Low -- °F
--% Chance of Precip.
Yesterday
High -- | Low -- °F
Precip. -- in
6:41 AM 8:20 PM
Waning Gibbous, 89% visible
Pressure 30.07 in
Visibility 10.0 miles
Clouds Clear
Dew Point 51 °F
Humidity 97%
Rainfall 0.00 in
Snow Depth Not available.
UV 0 out of 12
Pollen 7.20 out of 12
Air Quality Not available.
Flu Activity Sporadic
METAR KMCN 070953Z AUTO 00000KT 10SM CLR 11/11 A3008 RMK AO2 SLP182 T01110106 TSNO

More Conditions Fewer Conditions

Pressure 30.07 in
Visibility 10.0 miles
Clouds Clear
Dew Point 51 °F
Humidity 97%
Rainfall 0.00 in
Snow Depth Not available.
UV 0 out of 12
Pollen 7.20 out of 12
Air Quality Not available.
Flu Activity Sporadic
METAR KMCN 070953Z AUTO 00000KT 10SM CLR 11/11 A3008 RMK AO2 SLP182 T01110106 TSNO

More Conditions Fewer Conditions

10-Day Weather Forecast

Almanac

Astronomy

May. 07, 2015 Rise Set
Actual Time
Civil Twilight
Nautical Twilight
Astronomical Twilight
Moon
Length of Visible Light
Length of Day
Tomorrow will be .
, % of the Moon is Illuminated

Today's Extremes

State Highs State Lows

Community

WunderPhotos

Upload Photos

1,819,135 photos uploaded!

WunderBlogs® & News

Nearby

Air Quality

  Air Quality AQ Index Pollutant
Not available.

Snow Depth

Station Depth Elevation

Earthquake Activity

City Distance Mag. Time & Date
Minimum magnitude displayed is 2.5.

Coastal Water Temperatures

Place Temperature

Stations

Nearby Weather Stations

Station Location Temp. Windchill Dew Point Humidity Wind Precip. Elev Updated Type